Latest Weather Observations for Charlton

IDV60801

Issued at 2:32 pm EDT Wednesday 22 February 2017 (issued every 30 minutes, with the page automatically refreshed every 10 minutes)

About weather observations | Map of weather stations | Latest weather observations for VIC | Other Formats
Station Details ID: 080128 Name: CHARLTON Lat: -36.28 Lon: 143.33 Height: 131.7 m
Data from the previous 72 hours. | See also: Recent months at Charlton
Date/Time
EDT
Temp
°C
App
Temp
°C
Dew
Point
°C
Rel
Hum
%
Delta-T
°C
Wind Press
QNH
hPa
Press
MSL
hPa
Rain since
9am
mm
Dir  Spd
km/h
Gust
km/h
Spd
kts
Gust
kts
22/02:30pm 34.0 26.8 -1.9 10 17.2 NNW 26 41 14 22 1010.9 1010.3 0.0
22/02:21pm 33.9 27.3 -0.7 11 16.9 N 24 50 13 27 1010.9 1010.3 0.0
22/02:00pm 33.2 26.9 -1.2 11 16.6 N 22 39 12 21 1011.0 1010.4 0.0
22/01:30pm 32.2 25.7 0.3 13 15.6 N 24 39 13 21 1011.4 1010.8 0.0
22/01:00pm 31.1 24.5 -0.5 13 15.2 N 24 43 13 23 1012.4 1011.8 0.0
22/12:30pm 31.7 25.7 1.0 14 15.2 N 22 37 12 20 1012.9 1012.3 0.0
22/12:00pm 29.7 23.3 1.2 16 13.9 NNE 24 39 13 21 1013.2 1012.6 0.0
22/11:30am 28.5 22.8 2.7 19 12.9 NNE 22 35 12 19 1014.0 1013.4 0.0
22/11:00am 27.1 21.8 2.9 21 12.0 N 20 35 11 19 1014.5 1013.9 0.0
22/10:30am 25.9 20.6 3.2 23 11.2 NNE 20 35 11 19 1015.1 1014.5 0.0
22/10:00am 22.9 17.5 4.4 30 9.2 NNE 22 32 12 17 1015.3 1014.7 0.0
22/09:30am 21.3 16.5 4.4 33 8.3 NE 19 30 10 16 1015.3 1014.7 0.0
22/09:00am 19.7 14.8 4.2 36 7.5 NE 19 30 10 16 1015.1 1014.5 0.0
22/08:30am 19.2 14.7 4.2 37 7.2 NE 17 28 9 15 1015.2 1014.6 0.0
22/08:00am 17.3 13.2 4.6 43 6.1 NE 15 20 8 11 1015.1 1014.5 0.0
22/07:30am 16.2 12.5 4.6 46 5.5 NE 13 19 7 10 1015.2 1014.6 0.0
22/07:00am 16.1 12.0 4.2 45 5.6 NE 15 22 8 12 1014.9 1014.3 0.0
22/06:30am 16.3 12.6 4.4 45 5.6 NE 13 20 7 11 1014.5 1013.9 0.0
22/06:00am 16.0 12.2 4.1 45 5.6 NE 13 17 7 9 1014.3 1013.7 0.0
22/05:30am 15.6 12.6 4.3 47 5.3 NE 9 13 5 7 1014.4 1013.8 0.0
22/05:00am 15.9 12.9 4.3 46 5.4 NE 9 13 5 7 1014.6 1014.0 0.0
22/04:30am 16.8 13.4 4.2 43 5.9 NE 11 15 6 8 1014.6 1014.0 0.0
22/04:00am 16.9 13.6 4.6 44 5.9 ENE 11 17 6 9 1014.7 1014.1 0.0
22/03:30am 16.6 13.6 4.3 44 5.8 NE 9 13 5 7 1015.1 1014.5 0.0
22/03:00am 16.5 13.5 4.2 44 5.8 ENE 9 11 5 6 1015.6 1015.0 0.0
22/02:30am 16.6 14.0 4.0 43 5.9 NE 7 9 4 5 1016.0 1015.5 0.0
22/02:00am 17.3 14.3 3.9 41 6.3 NE 9 13 5 7 1016.2 1015.7 0.0
22/01:30am 17.2 14.2 4.2 42 6.2 NE 9 13 5 7 1016.4 1015.9 0.0
22/01:00am 13.1 10.6 4.8 57 3.8 NE 7 9 4 5 1016.6 1016.1 0.0
22/12:30am 13.2 10.8 4.4 55 4.1 ENE 6 7 3 4 1016.9 1016.4 0.0
22/12:00am 14.1 11.7 4.1 51 4.6 NE 6 7 3 4 1017.1 1016.6 0.0
 
Date/Time
EDT
Temp
°C
App
Temp
°C
Dew
Point
°C
Rel
Hum
%
Delta-T
°C
Wind Press
QNH
hPa
Press
MSL
hPa
Rain since
9am
mm
Dir  Spd
km/h
Gust
km/h
Spd
kts
Gust
kts
21/11:30pm 16.1 13.5 4.2 45 5.6 NE 7 9 4 5 1017.3 1016.8 0.0
21/11:00pm 17.5 14.8 3.8 40 6.4 NE 7 7 4 4 1017.5 1017.0 0.0
21/10:30pm 19.3 16.6 3.5 35 7.5 NE 7 9 4 5 1017.6 1017.1 0.0
21/10:00pm 20.0 17.3 3.7 34 7.8 NE 7 9 4 5 1017.2 1016.7 0.0
21/09:30pm 19.9 17.2 3.6 34 7.8 NE 7 9 4 5 1017.1 1016.6 0.0
21/09:00pm 20.7 18.1 3.4 32 8.3 NE 6 7 3 4 1017.0 1016.5 0.0
21/08:30pm 22.8 20.0 3.4 28 9.4 NE 7 9 4 5 1016.8 1016.3 0.0
21/08:00pm 24.4 21.2 3.1 25 10.4 NE 9 15 5 8 1016.6 1016.1 0.0
21/07:30pm 25.3 22.6 2.7 23 11.0 NNE 6 11 3 6 1016.6 1016.1 0.0
21/07:00pm 26.1 23.7 2.1 21 11.6 SE 4 7 2 4 1016.4 1015.9 0.0
21/06:30pm 25.8 22.4 1.8 21 11.6 N 9 17 5 9 1016.7 1016.2 0.0
21/06:00pm 26.5 23.6 2.4 21 11.8 N 7 13 4 7 1016.8 1016.3 0.0
21/05:30pm 25.5 22.4 1.6 21 11.4 SE 7 11 4 6 1017.0 1016.5 0.0
21/05:00pm 26.3 23.5 2.9 22 11.5 E 7 17 4 9 1017.0 1016.5 0.0
21/04:30pm 26.1 22.6 3.4 23 11.3 NNW 11 19 6 10 1017.4 1016.9 0.0
21/04:00pm 25.5 22.3 2.9 23 11.1 N 9 17 5 9 1017.8 1017.3 0.0
21/03:30pm 24.7 21.6 3.4 25 10.5 NE 9 13 5 7 1018.1 1017.6 0.0
21/03:00pm 25.2 21.3 3.2 24 10.8 NNE 13 20 7 11 1018.9 1018.3 0.0
21/02:30pm 24.6 21.7 4.4 27 10.1 N 9 17 5 9 1019.3 1018.7 0.0
21/02:00pm 23.8 21.2 4.2 28 9.7 N 7 13 4 7 1019.7 1019.1 0.0
21/01:30pm 22.8 19.8 4.3 30 9.1 ENE 9 19 5 10 1019.9 1019.3 0.0
21/01:00pm 22.8 19.8 4.3 30 9.1 N 9 13 5 7 1020.3 1019.7 0.0
21/12:30pm 22.4 19.9 4.9 32 8.7 NE 7 13 4 7 1020.9 1020.3 0.0
21/12:00pm 21.4 18.2 4.9 34 8.1 NE 11 13 6 7 1021.3 1020.7 0.0
21/11:30am 21.3 19.5 5.2 35 8.0 NE 4 11 2 6 1021.5 1020.9 0.0
21/11:00am 19.5 16.6 4.4 37 7.3 ENE 9 17 5 9 1021.6 1021.0 0.0
21/10:30am 19.9 17.1 5.2 38 7.2 ESE 9 17 5 9 1021.7 1021.1 0.0
21/10:00am 17.9 15.3 6.1 46 5.8 E 9 15 5 8 1021.7 1021.1 0.0
21/09:30am 16.9 14.4 6.4 50 5.2 E 9 13 5 7 1021.5 1020.9 0.0
21/09:00am 14.9 12.2 7.5 61 3.7 ESE 11 15 6 8 1021.3 1020.7 0.0
21/08:30am 12.1 10.2 7.6 74 2.2 SE 7 11 4 6 1021.1 1020.5 0.0
21/08:00am 10.0 9.6 8.3 89 0.8 CALM 0 0 0 0 1020.6 1020.0 0.0
21/07:30am 7.0 6.0 5.5 90 0.7 CALM 0 0 0 0 1020.4 1019.8 0.0
21/07:00am 6.4 4.4 4.6 88 0.8 SE 4 6 2 3 1020.2 1019.6 0.0
21/06:30am 7.2 6.1 5.0 86 1.0 CALM 0 0 0 0 1019.9 1019.3 0.0
21/06:00am 7.5 6.0 5.1 85 1.1 SE 2 7 1 4 1019.3 1018.7 0.0
21/05:30am 7.6 6.1 5.1 84 1.1 SE 2 6 1 3 1019.3 1018.7 0.0
21/05:00am 8.0 6.1 5.1 82 1.3 SE 4 6 2 3 1019.1 1018.5 0.0
21/04:30am 9.1 7.0 5.8 80 1.5 SE 6 7 3 4 1019.1 1018.5 0.0
21/04:00am 8.0 5.7 4.8 80 1.4 SE 6 6 3 3 1019.1 1018.5 0.0
21/03:30am 8.2 5.9 4.8 79 1.5 SSE 6 7 3 4 1019.1 1018.5 0.0
21/03:00am 8.9 6.4 4.7 75 1.9 SSE 7 9 4 5 1018.8 1018.2 0.0
21/02:30am 9.7 7.3 5.3 74 2.0 SSE 7 9 4 5 1018.7 1018.1 0.0
21/02:00am 10.1 7.7 5.3 72 2.2 SSE 7 11 4 6 1018.9 1018.3 0.0
21/01:30am 10.8 8.0 5.3 69 2.5 SSE 9 11 5 6 1019.1 1018.5 0.0
21/01:00am 11.3 8.9 5.4 67 2.7 SE 7 11 4 6 1019.2 1018.6 0.0
21/12:30am 12.0 9.3 5.6 65 3.0 SSE 9 11 5 6 1019.0 1018.4 0.0
21/12:00am 12.6 9.9 5.8 63 3.2 SSE 9 17 5 9 1018.8 1018.2 0.0
 
Date/Time
EDT
Temp
°C
App
Temp
°C
Dew
Point
°C
Rel
Hum
%
Delta-T
°C
Wind Press
QNH
hPa
Press
MSL
hPa
Rain since
9am
mm
Dir  Spd
km/h
Gust
km/h
Spd
kts
Gust
kts
20/11:30pm 12.2 9.5 5.8 65 3.0 SSE 9 13 5 7 1018.7 1018.1 0.0
20/11:00pm 11.4 9.0 4.4 62 3.2 SSE 6 9 3 5 1018.7 1018.1 0.0
20/10:30pm 11.7 9.1 4.2 60 3.4 S 7 9 4 5 1018.5 1017.9 0.0
20/10:00pm 13.1 10.7 4.5 56 4.0 SSW 6 9 3 5 1018.1 1017.6 0.0
20/09:30pm 14.1 12.4 4.1 51 4.6 SSW 2 9 1 5 1017.7 1017.2 0.0
20/09:00pm 16.4 13.5 4.8 46 5.5 SSW 9 15 5 8 1017.2 1016.7 0.0
20/08:30pm 17.9 15.3 4.1 40 6.6 S 7 15 4 8 1016.6 1016.1 0.0
20/08:00pm 19.5 16.4 3.6 35 7.6 SSW 9 19 5 10 1016.1 1015.6 0.0
20/07:30pm 19.9 15.9 2.7 32 8.1 SSW 13 20 7 11 1015.8 1015.3 0.0
20/07:00pm 20.9 16.9 2.7 30 8.6 SW 13 19 7 10 1015.4 1014.8 0.0
20/06:30pm 21.1 17.0 2.4 29 8.8 SW 13 22 7 12 1015.1 1014.5 0.0
20/06:00pm 20.7 16.9 2.0 29 8.7 SW 11 15 6 8 1014.9 1014.3 0.0
20/05:30pm 22.5 18.4 2.1 26 9.6 SW 13 26 7 14 1014.7 1014.1 0.0
20/05:00pm 22.2 18.2 2.8 28 9.3 SW 13 20 7 11 1014.5 1013.9 0.0
20/04:30pm 21.8 17.8 3.0 29 9.0 SW 13 24 7 13 1014.5 1013.9 0.0
20/04:00pm 21.0 17.1 3.2 31 8.5 S 13 22 7 12 1014.6 1014.0 0.0
20/03:30pm 21.4 17.2 3.6 31 8.6 SW 15 24 8 13 1014.6 1014.0 0.0
20/03:00pm 21.7 18.4 4.7 33 8.4 WSW 11 19 6 10 1014.8 1014.2 0.0
20/02:30pm 21.1 17.8 4.6 34 8.1 WSW 11 20 6 11 1014.9 1014.3 0.0
20/02:00pm 19.7 16.0 4.2 36 7.5 SW 13 20 7 11 1015.2 1014.6 0.0
20/01:30pm 20.0 16.9 3.7 34 7.8 W 9 20 5 11 1015.3 1014.7 0.0
20/01:00pm 18.8 15.4 3.8 37 7.1 WSW 11 20 6 11 1015.6 1015.0 0.0
20/12:30pm 19.6 16.2 6.0 41 6.8 SW 13 17 7 9 1015.8 1015.3 0.0
20/12:00pm 17.3 14.5 5.3 45 5.8 SW 9 19 5 10 1016.2 1015.7 0.0
20/11:30am 17.4 14.8 6.0 47 5.6 SW 9 17 5 9 1016.4 1015.9 0.0
20/11:00am 16.8 13.5 6.3 50 5.2 SW 13 22 7 12 1016.5 1016.0 0.0
20/10:30am 16.6 13.6 7.5 55 4.6 SW 13 19 7 10 1016.4 1015.9 0.0
20/10:00am 15.5 12.1 7.8 60 3.9 W 15 22 8 12 1016.4 1015.9 0.0
20/09:30am 13.3 10.6 7.5 68 2.9 WSW 11 19 6 10 1016.3 1015.8 0.0
20/09:00am 11.6 9.4 7.7 77 1.9 WSW 9 15 5 8 1016.2 1015.7 0.4
20/08:30am 9.8 7.0 7.1 83 1.3 W 11 19 6 10 1015.9 1015.4 0.4
20/08:00am 8.2 5.7 6.5 89 0.8 W 9 17 5 9 1015.5 1014.9 0.4
20/07:30am 6.7 4.5 5.5 92 0.5 W 6 9 3 5 1015.2 1014.6 0.4
20/07:00am 6.4 3.6 5.2 92 0.5 W 9 11 5 6 1014.8 1014.2 0.4
20/06:30am 6.5 3.7 5.3 92 0.5 W 9 13 5 7 1014.3 1013.7 0.4
20/06:00am 6.7 3.9 5.3 91 0.6 WNW 9 11 5 6 1014.0 1013.4 0.4
20/05:30am 6.9 4.5 5.2 89 0.8 W 7 11 4 6 1013.7 1013.1 0.4
20/05:00am 7.5 4.8 5.5 87 0.9 WNW 9 15 5 8 1013.5 1012.9 0.4
20/04:30am 8.0 4.5 5.6 85 1.1 WSW 13 19 7 10 1013.4 1012.8 0.4
20/04:00am 8.1 5.0 5.7 85 1.1 WSW 11 19 6 10 1013.4 1012.8 0.4
20/03:30am 8.5 5.0 5.6 82 1.3 WSW 13 22 7 12 1013.3 1012.7 0.4
20/03:00am 8.6 5.2 5.7 82 1.3 WSW 13 20 7 11 1013.1 1012.5 0.4
20/02:30am 8.7 5.2 5.6 81 1.4 WSW 13 19 7 10 1013.0 1012.4 0.4
20/02:00am 8.7 5.5 5.1 78 1.6 WSW 11 17 6 9 1013.3 1012.7 0.4
20/01:30am 9.0 6.2 5.0 76 1.8 WSW 9 17 5 9 1013.6 1013.0 0.4
20/01:00am 9.1 5.8 4.7 74 2.0 WSW 11 19 6 10 1013.3 1012.7 0.4
20/12:30am 9.3 6.0 4.5 72 2.1 WSW 11 15 6 8 1013.4 1012.8 0.4
20/12:00am 9.2 5.9 4.4 72 2.1 WSW 11 15 6 8 1013.5 1012.9 0.4
 
Date/Time
EDT
Temp
°C
App
Temp
°C
Dew
Point
°C
Rel
Hum
%
Delta-T
°C
Wind Press
QNH
hPa
Press
MSL
hPa
Rain since
9am
mm
Dir  Spd
km/h
Gust
km/h
Spd
kts
Gust
kts
19/11:30pm 9.7 7.2 4.5 70 2.3 SW 7 13 4 7 1013.3 1012.7 0.4
19/11:00pm 10.1 7.1 4.0 66 2.7 SW 9 13 5 7 1013.2 1012.6 0.4
19/10:30pm 11.0 8.4 4.2 63 3.1 SW 7 11 4 6 1013.2 1012.6 0.4
19/10:00pm 11.0 8.9 3.8 61 3.2 SW 4 7 2 4 1012.9 1012.3 0.4
19/09:30pm 12.8 9.8 4.0 55 4.0 SSW 9 17 5 9 1012.4 1011.8 0.4
19/09:00pm 13.6 9.9 2.5 47 4.9 SW 11 22 6 12 1012.0 1011.4 0.4
19/08:30pm 14.8 10.1 3.0 45 5.3 SW 17 26 9 14 1011.5 1010.9 0.4
19/08:00pm 15.5 10.0 3.9 46 5.4 SSW 22 35 12 19 1011.2 1010.6 0.4
19/07:30pm 16.7 12.1 3.7 42 6.1 SSW 17 33 9 18 1010.3 1009.8 0.4
19/07:00pm 18.1 13.2 5.0 42 6.4 SW 20 33 11 18 1009.8 1009.3 0.4
19/06:30pm 18.5 12.7 6.4 45 6.0 SW 26 44 14 24 1009.6 1009.1 0.4
19/06:00pm 18.4 12.8 5.6 43 6.3 WSW 24 44 13 24 1009.4 1008.9 0.4
19/05:30pm 18.2 13.0 7.3 49 5.5 WSW 24 39 13 21 1009.3 1008.8 0.4
19/05:00pm 17.1 14.2 9.5 61 4.0 SW 15 32 8 17 1009.4 1008.9 0.4
19/04:30pm 15.8 12.3 8.8 63 3.6 WSW 17 41 9 22 1009.6 1009.1 0.2
19/04:00pm 18.7 13.8 6.9 46 6.0 WSW 22 37 12 20 1009.4 1008.9 0.0
19/03:30pm 19.7 15.2 7.1 44 6.4 WSW 20 33 11 18 1009.7 1009.2 0.0
19/03:00pm 18.7 14.2 6.9 46 6.0 WSW 20 39 11 21 1010.0 1009.5 0.0

Other Formats:

Comma delimited format used in spreadsheet applications
http://www.bom.gov.au/fwo/IDV60801/IDV60801.94839.axf

JavaScript Object Notation format (JSON) in row-major order
http://www.bom.gov.au/fwo/IDV60801/IDV60801.94839.json